Time;durP1;ratioP1;P1;durP2;ratioP2;P2;SDS_P1;SDS_P2;PMS_P1;PMS_P2;Temp;Humidity;BMP_temperature;BMP_pressure;BME280_temperature;BME280_humidity;BME280_pressure;Samples;Min_cycle;Max_cycle;Signal;HPM_P1;HPM_P2
2023/03/28 00:00:32;;;;;;;;;3.00;3.00;;;;;-147.17;100.00;47061.84;5054206;28;51246;-47
2023/03/28 00:02:58;;;;;;;;;2.75;2.75;;;;;-147.17;100.00;47006.75;5052054;28;51155;-46
2023/03/28 00:05:23;;;;;;;;;2.25;2.25;;;;;-147.17;100.00;46904.47;5053815;28;51057;-46
2023/03/28 00:07:53;;;;;;;;;2.75;2.75;;;;;-147.17;100.00;46770.75;5051627;28;51280;-45
2023/03/28 00:10:19;;;;;;;;;1.50;1.50;;;;;-147.17;100.00;46666.50;5051646;28;51563;-45
2023/03/28 00:12:45;;;;;;;;;3.00;2.75;;;;;-147.17;100.00;46741.25;5032402;28;51789;-49
2023/03/28 00:15:11;;;;;;;;;7.00;4.00;;;;;-147.17;100.00;46676.34;5048759;28;51133;-46
2023/03/28 00:17:36;;;;;;;;;3.00;3.00;;;;;-147.17;100.00;46621.28;5046717;28;51439;-46
2023/03/28 00:20:03;;;;;;;;;2.50;2.50;;;;;-147.17;100.00;46385.28;5047972;28;51153;-45
2023/03/28 00:22:30;;;;;;;;;4.00;3.25;;;;;-147.17;100.00;46159.13;5050740;28;51862;-47
2023/03/28 00:24:57;;;;;;;;;3.50;3.50;;;;;-147.17;100.00;45864.16;5051863;28;51160;-48
2023/03/28 00:27:23;;;;;;;;;3.75;3.00;;;;;-147.17;100.00;45826.81;5052747;28;50973;-47
2023/03/28 00:29:48;;;;;;;;;5.50;4.00;;;;;-147.17;100.00;45822.88;5034531;28;51448;-47
2023/03/28 00:32:14;;;;;;;;;7.00;6.00;;;;;-147.17;100.00;45809.09;5051300;28;54090;-45
2023/03/28 00:34:39;;;;;;;;;4.00;4.00;;;;;-147.17;100.00;45610.50;5006561;28;54831;-47
2023/03/28 00:37:04;;;;;;;;;4.25;4.25;;;;;-147.17;100.00;44698.31;5047466;28;51212;-47
2023/03/28 00:39:30;;;;;;;;;6.50;5.50;;;;;-147.17;100.00;44839.84;5054104;28;50946;-47
2023/03/28 00:42:00;;;;;;;;;4.00;4.00;;;;;-147.17;100.00;45215.34;5059237;28;51066;-46
2023/03/28 00:44:43;;;;;;;;;8.00;7.00;;;;;-147.17;100.00;44889.00;5047846;28;51076;-45
2023/03/28 00:47:24;;;;;;;;;7.00;6.75;;;;;-147.17;100.00;44995.16;5052807;28;51077;-48
2023/03/28 00:49:56;;;;;;;;;6.50;4.50;;;;;-147.17;100.00;45097.38;5052059;28;51188;-45
2023/03/28 00:52:28;;;;;;;;;2.50;2.50;;;;;-147.17;100.00;44906.69;5052137;28;52059;-45
2023/03/28 00:54:56;;;;;;;;;7.00;5.50;;;;;-147.17;100.00;44470.28;5032556;28;51477;-46
2023/03/28 00:57:23;;;;;;;;;4.25;4.25;;;;;-147.17;100.00;44517.47;5036291;28;51096;-47
2023/03/28 00:59:50;;;;;;;;;4.00;3.00;;;;;-147.17;100.00;44600.03;5051434;28;51304;-46
2023/03/28 01:02:16;;;;;;;;;8.25;6.00;;;;;-147.17;100.00;44277.66;5050865;28;53767;-46
2023/03/28 01:04:53;;;;;;;;;3.50;3.50;;;;;-147.17;100.00;44405.41;5053555;28;51263;-46
2023/03/28 01:07:19;;;;;;;;;6.50;4.25;;;;;-147.17;100.00;44706.16;5051497;28;51400;-45
2023/03/28 01:09:46;;;;;;;;;6.00;4.25;;;;;-147.17;100.00;44373.97;5051554;28;51082;-45
2023/03/28 01:12:15;;;;;;;;;7.75;6.75;;;;;-147.17;100.00;44796.59;5055238;28;52255;-45
2023/03/28 01:14:42;;;;;;;;;3.50;3.00;;;;;-147.17;100.00;44792.66;5051384;28;51565;-50
2023/03/28 01:17:07;;;;;;;;;4.25;4.25;;;;;-147.17;100.00;44393.63;5050457;28;50987;-46
2023/03/28 01:19:35;;;;;;;;;4.25;4.25;;;;;-147.17;100.00;44155.81;5050980;28;51132;-45
2023/03/28 01:22:09;;;;;;;;;4.25;3.00;;;;;-147.17;100.00;43817.75;5050263;28;51912;-46
2023/03/28 01:24:46;;;;;;;;;6.00;5.25;;;;;-147.17;100.00;43025.81;5052797;28;51034;-47
2023/03/28 01:27:45;;;;;;;;;4.25;4.25;;;;;-147.17;100.00;43574.06;5050944;28;50944;-47
2023/03/28 01:30:53;;;;;;;;;5.75;5.75;;;;;-147.17;100.00;43114.25;5051164;28;51113;-47
2023/03/28 01:33:39;;;;;;;;;3.25;3.25;;;;;-147.17;100.00;43607.47;5030392;28;54265;-46
2023/03/28 01:36:13;;;;;;;;;5.75;4.25;;;;;-147.17;100.00;43802.03;5014701;28;51195;-46
2023/03/28 01:38:49;;;;;;;;;4.25;3.00;;;;;-147.17;100.00;43839.38;5047892;28;51324;-48
2023/03/28 01:41:52;;;;;;;;;6.50;4.50;;;;;-147.17;100.00;43705.72;5051893;28;51204;-46
2023/03/28 01:44:52;;;;;;;;;4.25;4.25;;;;;-147.17;100.00;43990.72;5040317;28;51804;-48
2023/03/28 01:47:40;;;;;;;;;3.25;3.25;;;;;-147.17;100.00;44297.31;5038489;28;51321;-50
2023/03/28 01:50:24;;;;;;;;;5.00;4.25;;;;;-147.17;100.00;44118.47;5049800;28;51132;-47
2023/03/28 01:53:12;;;;;;;;;2.75;2.75;;;;;-147.17;100.00;44336.63;5033626;28;51334;-45
2023/03/28 01:55:47;;;;;;;;;4.00;4.00;;;;;-147.17;100.00;44580.38;5043409;28;52765;-46
2023/03/28 01:58:21;;;;;;;;;2.75;2.75;;;;;-147.17;100.00;44588.22;5051853;28;51267;-48
2023/03/28 02:01:03;;;;;;;;;3.25;3.25;;;;;-147.17;100.00;44774.97;5033610;28;51448;-47
2023/03/28 02:03:33;;;;;;;;;4.25;4.25;;;;;-147.17;100.00;44580.38;5051287;28;51187;-47
2023/03/28 02:06:00;;;;;;;;;6.00;4.75;;;;;-147.17;100.00;44202.97;5049751;28;53353;-49
2023/03/28 02:08:29;;;;;;;;;2.00;2.00;;;;;-147.17;100.00;43672.31;5034831;28;51047;-49
2023/03/28 02:10:57;;;;;;;;;4.25;3.00;;;;;-147.17;100.00;43636.94;5052072;28;51090;-50
2023/03/28 02:13:34;;;;;;;;;3.00;3.00;;;;;-147.17;100.00;43772.56;5046234;28;51250;-52
2023/03/28 02:16:01;;;;;;;;;3.00;2.00;;;;;-147.17;100.00;43660.53;5049032;28;52990;-48
2023/03/28 02:18:36;;;;;;;;;1.25;1.25;;;;;-147.17;100.00;43566.22;5051255;28;51052;-46
2023/03/28 02:21:06;;;;;;;;;0.25;0.25;;;;;-147.17;100.00;43401.13;5051160;28;51136;-47
2023/03/28 02:23:37;;;;;;;;;3.25;3.00;;;;;-147.17;100.00;43350.03;5033517;28;51363;-46
2023/03/28 02:26:02;;;;;;;;;3.00;2.50;;;;;-147.17;100.00;43499.38;5051090;28;51702;-47
2023/03/28 02:28:31;;;;;;;;;1.00;1.00;;;;;-147.17;100.00;43071.00;5049448;28;50937;-45
2023/03/28 02:30:57;;;;;;;;;2.00;2.00;;;;;-147.17;100.00;43334.31;5034546;28;51015;-49
2023/03/28 02:33:42;;;;;;;;;3.00;2.00;;;;;-147.17;100.00;43165.34;5051876;28;51201;-47
2023/03/28 02:36:33;;;;;;;;;6.50;3.00;;;;;-147.17;100.00;42845.06;5045416;28;52333;-46
2023/03/28 02:39:30;;;;;;;;;3.25;3.25;;;;;-147.17;100.00;42717.34;5028294;28;51204;-49
2023/03/28 02:42:25;;;;;;;;;4.25;3.50;;;;;-147.17;100.00;42536.59;5050504;28;51268;-47
2023/03/28 02:45:06;;;;;;;;;2.00;2.00;;;;;-147.17;100.00;42526.75;5050956;28;51098;-46
2023/03/28 02:47:37;;;;;;;;;5.50;5.50;;;;;-147.17;100.00;41632.94;5046076;28;51040;-46
2023/03/28 02:50:21;;;;;;;;;5.75;3.25;;;;;-147.17;100.00;41896.16;5050885;28;51030;-46
2023/03/28 02:52:53;;;;;;;;;2.25;1.75;;;;;-147.17;100.00;41719.38;5019707;28;51161;-45
2023/03/28 02:55:37;;;;;;;;;3.00;2.75;;;;;-147.17;100.00;41672.22;5048031;28;51151;-47
2023/03/28 02:58:33;;;;;;;;;3.00;3.00;;;;;-147.17;100.00;41727.22;5049206;28;52223;-46
2023/03/28 03:01:01;;;;;;;;;3.00;3.00;;;;;-147.17;100.00;41597.59;5042085;28;51384;-47
2023/03/28 03:03:26;;;;;;;;;3.00;3.00;;;;;-147.17;100.00;41475.81;5046655;28;51164;-46
2023/03/28 03:05:52;;;;;;;;;2.25;2.25;;;;;-147.17;100.00;41678.13;5050771;28;51064;-46
2023/03/28 03:08:18;;;;;;;;;3.25;3.25;;;;;-147.17;100.00;39739.91;5052249;28;51190;-47
2023/03/28 03:10:43;;;;;;;;;4.00;4.00;;;;;-147.17;100.00;39537.69;5051383;28;51149;-46
2023/03/28 03:13:09;;;;;;;;;2.75;2.75;;;;;-147.17;100.00;39938.19;5053703;28;51104;-47
2023/03/28 03:15:35;;;;;;;;;3.75;3.75;;;;;-147.17;100.00;39790.94;5055988;28;51269;-47
2023/03/28 03:18:00;;;;;;;;;2.25;2.25;;;;;-147.17;100.00;40016.72;5040245;28;53681;-46
2023/03/28 03:20:32;;;;;;;;;3.00;3.00;;;;;-147.17;100.00;39734.00;5033850;28;51232;-45
2023/03/28 03:22:58;;;;;;;;;4.50;3.25;;;;;-147.17;100.00;40495.84;5055456;28;51089;-48
2023/03/28 03:25:23;;;;;;;;;4.25;4.25;;;;;-147.17;100.00;40548.84;5054931;28;51160;-50
2023/03/28 03:27:49;;;;;;;;;5.25;5.00;;;;;-147.17;100.00;39951.94;5052513;28;51249;-45
2023/03/28 03:30:14;;;;;;;;;2.75;2.75;;;;;-147.17;100.00;40576.34;5033569;28;51169;-46
2023/03/28 03:32:40;;;;;;;;;6.25;5.00;;;;;-147.17;100.00;39488.63;5035756;28;51335;-49
2023/03/28 03:35:05;;;;;;;;;2.50;2.00;;;;;-147.17;100.00;38177.47;5054781;28;51346;-47
2023/03/28 03:37:31;;;;;;;;;1.00;0.00;;;;;-147.17;100.00;36894.19;5047302;28;53365;-45
2023/03/28 03:39:56;;;;;;;;;2.75;1.00;;;;;-147.17;100.00;36550.91;5052822;28;51219;-46
2023/03/28 03:42:21;;;;;;;;;3.25;3.25;;;;;-147.17;100.00;35942.81;5053585;28;51137;-46
2023/03/28 03:44:47;;;;;;;;;5.00;3.00;;;;;-147.17;100.00;34505.41;5053925;28;51231;-47
2023/03/28 03:47:12;;;;;;;;;3.00;3.00;;;;;-147.17;100.00;34036.84;5054008;28;51965;-47
2023/03/28 03:49:38;;;;;;;;;3.00;3.00;;;;;-147.17;100.00;35509.38;5052498;28;50926;-48
2023/03/28 03:52:03;;;;;;;;;3.00;2.00;;;;;-147.17;100.00;34160.34;5054489;28;51543;-49
2023/03/28 03:54:29;;;;;;;;;2.00;2.00;;;;;-147.17;100.00;31957.38;5054875;28;51052;-48
2023/03/28 03:56:54;;;;;;;;;3.75;2.00;;;;;-147.17;100.00;31502.84;5034498;28;53498;-48
2023/03/28 03:59:20;;;;;;;;;5.25;3.50;;;;;-147.17;100.00;29183.91;5047869;28;51256;-47
2023/03/28 04:01:45;;;;;;;;;2.75;2.75;;;;;-147.17;100.00;31081.66;5052113;28;51340;-47
2023/03/28 04:04:10;;;;;;;;;6.00;6.00;;;;;-147.17;100.00;30987.63;5053059;28;52404;-46
2023/03/28 04:06:39;;;;;;;;;5.00;5.00;;;;;-147.17;100.00;28933.28;5049821;28;52063;-45
2023/03/28 04:09:06;;;;;;;;;3.00;3.00;;;;;-147.17;100.00;28682.69;5030184;28;51291;-47
2023/03/28 04:11:32;;;;;;;;;2.00;2.00;;;;;-147.17;100.00;28181.53;5054507;28;50971;-47
2023/03/28 04:13:58;;;;;;;;;5.50;5.50;;;;;-147.17;100.00;27429.94;5024978;28;51211;-47
2023/03/28 04:16:23;;;;;;;;;5.25;3.50;;;;;-147.17;100.00;25676.75;5041744;28;52380;-47
2023/03/28 04:18:51;;;;;;;;;5.00;5.00;;;;;-147.17;100.00;25676.75;5044465;28;51080;-45
2023/03/28 04:21:20;;;;;;;;;5.25;5.00;;;;;-147.17;100.00;24925.63;5035533;28;51122;-48
2023/03/28 04:23:47;;;;;;;;;5.50;5.50;;;;;-147.17;100.00;25426.38;5051527;28;50903;-46
2023/03/28 04:26:14;;;;;;;;;3.50;3.00;;;;;-147.17;100.00;24925.63;5027203;28;51847;-46
2023/03/28 04:28:40;;;;;;;;;5.00;5.00;;;;;-147.17;100.00;25676.75;5030862;28;51186;-48
2023/03/28 04:31:06;;;;;;;;;3.50;3.00;;;;;-147.17;100.00;25426.38;5051263;28;52879;-47
2023/03/28 04:33:32;;;;;;;;;6.00;4.50;;;;;-147.17;100.00;23924.38;5045888;28;51137;-49
2023/03/28 04:36:00;;;;;;;;;6.00;5.75;;;;;-147.17;100.00;25426.38;5028527;28;52889;-46
2023/03/28 04:38:28;;;;;;;;;5.00;3.00;;;;;-147.17;100.00;24675.28;5023021;28;51067;-47
2023/03/28 04:40:56;;;;;;;;;5.00;5.00;;;;;-147.17;100.00;24925.63;5048721;28;51161;-47
2023/03/28 04:43:23;;;;;;;;;6.50;6.50;;;;;-147.17;100.00;20672.00;5044550;28;51808;-46
2023/03/28 04:45:49;;;;;;;;;5.50;5.50;;;;;-147.17;100.00;21922.59;5045888;28;52230;-46
2023/03/28 04:48:14;;;;;;;;;7.25;6.75;;;;;-147.17;100.00;21422.31;5031702;28;51251;-47
2023/03/28 04:50:39;;;;;;;;;5.25;5.00;;;;;-147.17;100.00;20171.88;5030678;28;51235;-47
2023/03/28 04:53:05;;;;;;;;;5.50;5.50;;;;;-147.17;100.00;19421.84;5024896;28;51297;-47
2023/03/28 04:55:30;;;;;;;;;6.00;6.00;;;;;-147.17;100.00;16423.03;5048032;28;51960;-47
2023/03/28 04:57:56;;;;;;;;;6.50;6.00;;;;;-147.17;100.00;17672.25;5048470;28;50922;-46
2023/03/28 05:00:22;;;;;;;;;5.75;5.00;;;;;-147.17;100.00;17672.25;5053614;28;50982;-47
2023/03/28 05:02:47;;;;;;;;;6.00;6.00;;;;;-147.17;100.00;15673.69;5051179;28;50991;-46
2023/03/28 05:05:12;;;;;;;;;5.00;5.00;;;;;-147.17;100.00;15423.94;5052132;28;51368;-46
2023/03/28 05:07:38;;;;;;;;;5.00;5.00;;;;;-147.17;100.00;15673.69;5050142;28;51303;-47
2023/03/28 05:10:04;;;;;;;;;5.75;5.75;;;;;-147.17;100.00;14924.50;5049588;28;51276;-48
2023/03/28 05:12:30;;;;;;;;;7.25;6.25;;;;;-147.17;100.00;15423.94;5053481;28;51034;-50
2023/03/28 05:14:55;;;;;;;;;6.75;6.00;;;;;-147.17;100.00;13925.81;5051945;28;51843;-47
2023/03/28 05:17:21;;;;;;;;;3.00;3.00;;;;;-147.17;100.00;12927.34;5053689;28;51631;-47
2023/03/28 05:19:46;;;;;;;;;5.25;5.25;;;;;-147.17;100.00;12428.22;5058268;28;51583;-47
2023/03/28 05:22:11;;;;;;;;;5.00;4.00;;;;;-147.17;100.00;12428.22;5055907;28;51250;-46
2023/03/28 05:24:37;;;;;;;;;6.00;6.00;;;;;-147.17;100.00;12428.22;5049116;28;51233;-47
2023/03/28 05:27:02;;;;;;;;;6.00;6.00;;;;;-147.17;100.00;11929.16;5050173;28;51094;-50
2023/03/28 05:29:27;;;;;;;;;6.75;6.00;;;;;-147.17;100.00;11430.19;5034614;28;51021;-47
2023/03/28 05:31:53;;;;;;;;;7.00;6.25;;;;;-147.17;100.00;11430.19;5052418;28;51109;-48
2023/03/28 05:34:18;;;;;;;;;7.00;6.75;;;;;-147.17;100.00;10681.81;5052945;28;52151;-49
2023/03/28 05:36:43;;;;;;;;;9.75;8.00;;;;;-147.17;100.00;11679.66;5052722;28;51200;-49
2023/03/28 05:39:09;;;;;;;;;8.00;8.00;;;;;-147.17;100.00;11929.16;5026544;28;51382;-47
2023/03/28 05:41:34;;;;;;;;;10.00;7.00;;;;;-147.17;100.00;10931.25;5058607;28;51141;-48
2023/03/28 05:44:00;;;;;;;;;9.25;7.00;;;;;-147.17;100.00;10681.81;5061192;28;51643;-49
2023/03/28 05:46:25;;;;;;;;;8.00;7.00;;;;;-147.17;100.00;10432.38;5039722;28;51128;-48
2023/03/28 05:48:50;;;;;;;;;9.50;8.00;;;;;-147.17;100.00;10931.25;5052420;28;51313;-48
2023/03/28 05:51:16;;;;;;;;;7.75;7.75;;;;;-147.17;100.00;10182.97;5053258;28;51016;-47
2023/03/28 05:53:42;;;;;;;;;11.00;10.00;;;;;-147.17;100.00;10182.97;5050231;28;51897;-47
2023/03/28 05:56:08;;;;;;;;;7.50;7.50;;;;;-147.17;100.00;10182.97;5050891;28;51126;-50
2023/03/28 05:58:34;;;;;;;;;10.00;10.00;;;;;-147.17;100.00;9185.47;5048015;28;51105;-47
2023/03/28 06:01:00;;;;;;;;;7.00;6.50;;;;;-147.17;100.00;9434.84;5039297;28;51209;-50
2023/03/28 06:03:26;;;;;;;;;10.75;9.75;;;;;-147.17;100.00;9684.19;5046667;28;52473;-50
2023/03/28 06:05:52;;;;;;;;;12.50;10.00;;;;;-147.17;100.00;9434.84;5030043;28;51144;-47
2023/03/28 06:08:18;;;;;;;;;7.50;7.00;;;;;-147.17;100.00;8188.25;5052263;28;51201;-48
2023/03/28 06:10:43;;;;;;;;;11.00;10.25;;;;;-147.17;100.00;8437.53;5052734;28;51378;-51
2023/03/28 06:13:09;;;;;;;;;6.25;6.00;;;;;-147.17;100.00;8686.84;5058669;28;51885;-49
2023/03/28 06:15:34;;;;;;;;;11.75;10.25;;;;;-147.17;100.00;7939.00;5051401;28;51145;-50
2023/03/28 06:17:59;;;;;;;;;7.75;7.75;;;;;-147.17;100.00;6942.09;5048409;28;51070;-48
2023/03/28 06:20:25;;;;;;;;;12.50;11.75;;;;;-147.17;100.00;7689.75;5050317;28;50996;-54
2023/03/28 06:22:50;;;;;;;;;7.75;7.75;;;;;-147.17;100.00;6692.91;5051781;28;51042;-47
2023/03/28 06:25:16;;;;;;;;;10.00;8.00;;;;;-147.17;100.00;5198.13;5033959;28;51088;-48
2023/03/28 06:27:41;;;;;;;;;10.25;9.50;;;;;-147.17;100.00;2957.06;5049345;28;51218;-47
2023/03/28 06:30:07;;;;;;;;;11.50;11.50;;;;;-147.17;100.00;2957.06;5050947;28;51237;-49
2023/03/28 06:32:33;;;;;;;;;10.00;8.00;;;;;-147.17;100.00;2708.13;5049934;28;51392;-49
2023/03/28 06:34:58;;;;;;;;;6.50;5.00;;;;;-147.17;100.00;3952.94;5051764;28;50992;-48
2023/03/28 06:37:23;;;;;;;;;7.00;7.00;;;;;-147.17;100.00;3952.94;5047039;28;51201;-49
2023/03/28 06:39:51;;;;;;;;;11.00;10.75;;;;;-147.17;100.00;2459.22;5034795;28;51352;-50
2023/03/28 06:42:16;;;;;;;;;10.00;8.75;;;;;-147.17;100.00;2459.22;5050707;28;51087;-49
2023/03/28 06:44:42;;;;;;;;;10.25;10.25;;;;;-147.17;100.00;2210.31;5050213;28;51086;-49
2023/03/28 06:47:07;;;;;;;;;8.00;7.00;;;;;-147.17;100.00;2708.13;5052218;28;51099;-48
2023/03/28 06:49:32;;;;;;;;;11.25;10.50;;;;;-147.17;100.00;2210.31;5035700;28;51353;-49
2023/03/28 06:51:58;;;;;;;;;11.25;11.25;;;;;-147.17;100.00;2210.31;5052144;28;51815;-48
2023/03/28 06:54:24;;;;;;;;;11.00;10.50;;;;;-147.17;100.00;1961.44;5051422;28;51030;-48
2023/03/28 06:56:49;;;;;;;;;11.00;11.00;;;;;-147.17;100.00;1712.56;5047171;28;51138;-48
2023/03/28 06:59:14;;;;;;;;;11.50;11.50;;;;;-147.17;100.00;1463.72;5046258;28;51240;-50
2023/03/28 07:01:40;;;;;;;;;9.75;8.75;;;;;-147.17;100.00;1712.56;5050987;28;51113;-49
2023/03/28 07:04:05;;;;;;;;;6.75;6.00;;;;;-147.17;100.00;1712.56;5051804;28;51062;-48
2023/03/28 07:06:31;;;;;;;;;13.25;13.00;;;;;-147.17;100.00;966.09;5050704;28;51820;-47
2023/03/28 07:08:57;;;;;;;;;10.25;9.75;;;;;-147.17;100.00;717.28;5051962;28;50874;-47
2023/03/28 07:11:23;;;;;;;;;10.00;9.25;;;;;-147.17;100.00;966.09;5052921;28;51112;-49
2023/03/28 07:13:48;;;;;;;;;13.25;12.50;;;;;-147.17;100.00;1463.72;5051568;28;51347;-50
2023/03/28 07:16:15;;;;;;;;;7.50;6.00;;;;;-147.17;100.00;2708.13;5051768;28;52336;-47
2023/03/28 07:18:41;;;;;;;;;11.00;9.50;;;;;-147.17;100.00;1961.44;5051888;28;51185;-50
2023/03/28 07:21:11;;;;;;;;;8.75;8.00;;;;;-147.17;100.00;2459.22;5031651;28;53238;-50
2023/03/28 07:23:38;;;;;;;;;7.50;7.00;;;;;-147.17;100.00;1214.91;5052002;28;51029;-49
2023/03/28 07:26:05;;;;;;;;;13.00;12.00;;;;;-147.17;100.00;468.50;5050547;28;51133;-49
2023/03/28 07:28:31;;;;;;;;;13.00;10.25;;;;;-147.17;100.00;717.28;5033168;28;51078;-47
2023/03/28 07:31:00;;;;;;;;;4.25;3.25;;;;;-147.17;100.00;717.28;5050013;28;51710;-47
2023/03/28 07:33:25;;;;;;;;;10.00;9.25;;;;;-147.17;100.00;717.28;5044600;28;51094;-51
2023/03/28 07:35:51;;;;;;;;;12.50;12.00;;;;;-147.17;100.00;966.09;5051318;28;51131;-47
2023/03/28 07:38:17;;;;;;;;;8.00;8.00;;;;;-147.17;100.00;717.28;5050765;28;50892;-48
2023/03/28 07:40:42;;;;;;;;;11.25;11.25;;;;;-147.17;100.00;219.72;5045179;28;51147;-51
2023/03/28 07:43:08;;;;;;;;;14.50;13.25;;;;;-147.17;100.00;1463.72;5047034;28;50911;-47
2023/03/28 07:45:33;;;;;;;;;9.25;8.75;;;;;-147.17;100.00;966.09;5051061;28;51046;-50
2023/03/28 07:47:58;;;;;;;;;11.25;11.00;;;;;-147.17;100.00;1712.56;5051432;28;51357;-48
2023/03/28 07:50:24;;;;;;;;;13.75;12.00;;;;;-147.17;100.00;2459.22;5050923;28;52444;-50
2023/03/28 07:52:50;;;;;;;;;12.75;12.25;;;;;-147.17;100.00;3952.94;5040958;28;50913;-48
2023/03/28 07:55:16;;;;;;;;;12.75;10.25;;;;;-147.17;100.00;5447.22;5053378;28;51145;-48
2023/03/28 07:57:44;;;;;;;;;13.75;12.75;;;;;-147.17;100.00;6692.91;5053080;28;51175;-48
2023/03/28 08:00:14;;;;;;;;;12.00;11.50;;;;;-147.17;100.00;6692.91;5053080;28;52975;-47
2023/03/28 08:02:40;;;;;;;;;19.75;19.75;;;;;-147.17;100.00;7440.50;5054300;28;51127;-50
2023/03/28 08:05:06;;;;;;;;;10.75;10.75;;;;;-147.17;100.00;9434.84;5052142;28;51078;-50
2023/03/28 08:07:33;;;;;;;;;9.75;9.50;;;;;-147.17;100.00;11929.16;5032474;28;51449;-47
2023/03/28 08:09:59;;;;;;;;;9.50;9.50;;;;;-147.17;100.00;12927.34;5017755;28;53816;-49
2023/03/28 08:12:24;;;;;;;;;10.75;10.75;;;;;-147.17;100.00;10931.25;5053049;28;51129;-50
2023/03/28 08:14:50;;;;;;;;;10.00;10.00;;;;;-147.17;100.00;12428.22;5054343;28;51125;-49
2023/03/28 08:17:15;;;;;;;;;12.75;10.75;;;;;-147.17;100.00;18421.97;5054692;28;51356;-51
2023/03/28 08:19:41;;;;;;;;;8.25;7.75;;;;;-147.17;100.00;21422.31;5054321;28;52032;-49
2023/03/28 08:22:09;;;;;;;;;11.50;11.50;;;;;-147.17;100.00;21922.59;5054439;28;50879;-50
2023/03/28 08:24:34;;;;;;;;;13.00;12.50;;;;;-147.17;100.00;21422.31;5049411;28;51008;-49
2023/03/28 08:27:00;;;;;;;;;10.50;10.50;;;;;-147.17;100.00;23674.09;5054164;28;50915;-50
2023/03/28 08:29:25;;;;;;;;;11.50;11.50;;;;;-147.17;100.00;26678.47;5054322;28;52109;-48
2023/03/28 08:31:51;;;;;;;;;11.75;11.50;;;;;-147.17;100.00;30819.16;5053854;28;55156;-48
2023/03/28 08:34:16;;;;;;;;;12.50;11.75;;;;;-147.17;100.00;33525.19;5054619;28;51097;-48
2023/03/28 08:36:42;;;;;;;;;12.75;11.50;;;;;-147.17;100.00;35646.66;5052898;28;51420;-49
2023/03/28 08:39:08;;;;;;;;;12.00;11.25;;;;;-147.17;100.00;37225.78;5033827;28;52631;-50
2023/03/28 08:41:56;;;;;;;;;12.00;11.00;;;;;-147.17;100.00;39414.03;5054693;28;50994;-48
2023/03/28 08:44:50;;;;;;;;;9.50;8.50;;;;;-147.17;100.00;41059.44;5053651;28;51106;-49
2023/03/28 08:47:21;;;;;;;;;4.25;4.25;;;;;-147.17;100.00;42367.63;5049972;28;51341;-51
2023/03/28 08:49:57;;;;;;;;;11.25;10.75;;;;;-147.17;100.00;41774.38;5052277;28;51497;-49
2023/03/28 08:52:23;;;;;;;;;8.75;7.75;;;;;-147.17;100.00;43249.81;5051676;28;51266;-48
2023/03/28 08:54:56;;;;;;;;;9.00;9.00;;;;;-147.17;100.00;43334.31;5035900;28;51003;-48
2023/03/28 08:57:28;;;;;;;;;8.00;8.00;;;;;-147.17;100.00;43467.94;5052214;28;51229;-48
2023/03/28 09:00:13;;;;;;;;;10.00;10.00;;;;;-147.17;100.00;43326.47;5052798;28;51956;-49
2023/03/28 09:02:39;;;;;;;;;5.00;4.00;;;;;-147.17;100.00;43807.94;5050818;28;51147;-51
2023/03/28 09:05:11;;;;;;;;;9.50;9.50;;;;;-147.17;100.00;44584.28;5051738;28;51057;-47
2023/03/28 09:07:59;;;;;;;;;13.00;13.00;;;;;-147.17;100.00;44031.97;5053721;28;51359;-47
2023/03/28 09:10:33;;;;;;;;;8.50;8.50;;;;;-147.17;100.00;43456.16;5034151;28;53328;-50
2023/03/28 09:13:04;;;;;;;;;9.00;8.00;;;;;-147.17;100.00;43446.34;5045817;28;50928;-49
2023/03/28 09:15:44;;;;;;;;;10.25;9.50;;;;;-147.17;100.00;43780.41;5052992;28;51304;-47
2023/03/28 09:18:39;;;;;;;;;7.00;6.25;;;;;-147.17;100.00;43892.44;5052886;28;51516;-48
2023/03/28 09:21:19;;;;;;;;;4.50;4.00;;;;;-147.17;100.00;43945.50;5053362;28;52377;-49
2023/03/28 09:24:05;;;;;;;;;8.50;7.75;;;;;-147.17;100.00;44814.28;5052965;28;51043;-49
2023/03/28 09:26:39;;;;;;;;;5.00;4.25;;;;;-147.17;100.00;44877.19;5046944;28;51217;-48
2023/03/28 09:29:13;;;;;;;;;9.75;9.75;;;;;-147.17;100.00;45063.94;5051534;28;51176;-47
2023/03/28 09:31:47;;;;;;;;;4.75;4.75;;;;;-147.17;100.00;45339.19;5052175;28;51822;-51
2023/03/28 09:34:20;;;;;;;;;8.25;8.00;;;;;-147.17;100.00;45240.88;5044131;28;51219;-50
2023/03/28 09:36:49;;;;;;;;;7.75;7.75;;;;;-147.17;100.00;45272.34;5052322;28;52409;-48
2023/03/28 09:39:40;;;;;;;;;3.50;3.50;;;;;-147.17;100.00;45048.22;5051001;28;51268;-52
2023/03/28 09:42:14;;;;;;;;;3.75;3.75;;;;;-147.17;100.00;45451.25;5052204;28;52208;-48
2023/03/28 09:44:51;;;;;;;;;4.00;3.50;;;;;-147.17;100.00;45978.22;5047711;28;51046;-51
2023/03/28 09:47:17;;;;;;;;;13.00;11.00;;;;;-147.17;100.00;46092.25;5051431;28;51166;-51
2023/03/28 09:49:43;;;;;;;;;4.50;4.50;;;;;-147.17;100.00;46379.38;5052069;28;51502;-48
2023/03/28 09:52:17;;;;;;;;;4.00;4.00;;;;;-147.17;100.00;46322.34;5031393;28;54064;-48
2023/03/28 09:54:43;;;;;;;;;4.25;3.75;;;;;-147.17;100.00;46043.09;5045829;28;51153;-47
2023/03/28 09:57:11;;;;;;;;;6.00;6.00;;;;;-147.17;100.00;45854.34;5052478;28;51216;-47
2023/03/28 09:59:36;;;;;;;;;6.25;6.25;;;;;-147.17;100.00;45990.00;5029096;28;51421;-48
2023/03/28 10:02:03;;;;;;;;;5.25;5.25;;;;;-147.17;100.00;46157.16;5046832;28;52036;-49
2023/03/28 10:04:28;;;;;;;;;4.00;3.00;;;;;-147.17;100.00;46621.28;5048488;28;51151;-50
2023/03/28 10:06:56;;;;;;;;;4.00;4.00;;;;;-147.17;100.00;47067.72;5053090;28;51016;-53
2023/03/28 10:09:29;;;;;;;;;4.00;4.00;;;;;-147.17;100.00;46922.19;5030057;28;51219;-50
2023/03/28 10:11:59;;;;;;;;;4.50;3.75;;;;;-147.17;100.00;46916.28;5018575;28;53902;-52
2023/03/28 10:14:37;;;;;;;;;3.75;3.25;;;;;-147.17;100.00;47227.06;5017406;28;55309;-48
2023/03/28 10:17:15;;;;;;;;;4.75;4.25;;;;;-147.17;100.00;47343.13;5027833;28;51156;-50
2023/03/28 10:19:43;;;;;;;;;4.00;4.00;;;;;-147.17;100.00;47451.31;5032481;28;51049;-49
2023/03/28 10:22:20;;;;;;;;;4.33;4.33;;;;;-147.17;100.00;47557.53;5031109;28;51063;-49
2023/03/28 10:24:46;;;;;;;;;5.00;4.00;;;;;-147.17;100.00;47522.13;5025878;28;51312;-51
2023/03/28 10:27:26;;;;;;;;;5.00;4.00;;;;;-147.17;100.00;47742.44;5027075;28;51170;-49
2023/03/28 10:29:55;;;;;;;;;2.50;2.50;;;;;-147.17;100.00;47854.59;5010696;28;51267;-49
2023/03/28 10:32:28;;;;;;;;;5.00;4.33;;;;;-147.17;100.00;47895.91;5008316;28;53526;-50
2023/03/28 10:35:26;;;;;;;;;4.50;4.50;;;;;-147.17;100.00;47868.34;5031407;28;51095;-48
2023/03/28 10:37:55;;;;;;;;;3.33;3.00;;;;;-147.17;100.00;47949.00;5029450;28;50994;-49
2023/03/28 10:40:24;;;;;;;;;3.00;3.00;;;;;-147.17;100.00;47970.66;5028844;28;51561;-49
2023/03/28 10:42:50;;;;;;;;;3.00;3.00;;;;;-147.17;100.00;47915.56;5024565;28;51961;-49
2023/03/28 10:45:20;;;;;;;;;4.25;4.25;;;;;-147.17;100.00;47821.13;5026992;28;51184;-49
2023/03/28 10:47:49;;;;;;;;;4.00;4.00;;;;;-147.17;100.00;47915.56;5029094;28;51222;-49
2023/03/28 10:50:46;;;;;;;;;6.75;6.25;;;;;-147.17;100.00;48098.53;5031684;28;51177;-49
2023/03/28 10:53:11;;;;;;;;;4.50;4.50;;;;;-147.17;100.00;48002.13;5028826;28;51845;-50
2023/03/28 10:55:49;;;;;;;;;2.00;1.50;;;;;-147.17;100.00;47917.53;5023336;28;51031;-50
2023/03/28 10:58:34;;;;;;;;;6.00;4.00;;;;;-147.17;100.00;48086.72;5026733;28;51197;-48
2023/03/28 11:01:19;;;;;;;;;2.75;2.00;;;;;-147.17;100.00;48161.50;5027530;28;51821;-49
2023/03/28 11:04:10;;;;;;;;;4.00;4.00;;;;;-147.17;100.00;48163.47;5021911;28;51229;-48
2023/03/28 11:06:48;;;;;;;;;6.25;4.75;;;;;-147.17;100.00;48206.75;5004425;28;51155;-49
2023/03/28 11:09:19;;;;;;;;;5.00;5.00;;;;;-147.17;100.00;48122.16;5039959;28;51043;-47
2023/03/28 11:12:05;;;;;;;;;4.50;4.50;;;;;-147.17;100.00;47978.53;5049867;28;51249;-51
2023/03/28 11:14:40;;;;;;;;;5.00;4.50;;;;;-147.17;100.00;48015.91;5048976;28;52218;-50
2023/03/28 11:17:33;;;;;;;;;21.25;19.50;;;;;-147.17;100.00;47962.78;5046804;28;51892;-50
2023/03/28 11:20:23;;;;;;;;;5.00;4.00;;;;;-147.17;100.00;47943.09;5043786;28;53756;-48
2023/03/28 11:23:01;;;;;;;;;8.25;6.75;;;;;-147.17;100.00;47860.47;5028108;28;51281;-51